sensor_id;sensor_type;location;lat;lon;timestamp;temperature;humidity
73955;DHT22;62306;52.516;13.290;2023-12-20T00:01:00;7.80;99.90
73955;DHT22;62306;52.516;13.290;2023-12-20T00:03:27;7.90;99.90
73955;DHT22;62306;52.516;13.290;2023-12-20T00:05:53;7.80;99.90
73955;DHT22;62306;52.516;13.290;2023-12-20T00:08:21;7.80;99.90
73955;DHT22;62306;52.516;13.290;2023-12-20T00:10:48;7.80;99.90
73955;DHT22;62306;52.516;13.290;2023-12-20T00:13:14;7.90;99.90
73955;DHT22;62306;52.516;13.290;2023-12-20T00:15:41;7.90;99.90
73955;DHT22;62306;52.516;13.290;2023-12-20T00:18:09;7.80;99.90
73955;DHT22;62306;52.516;13.290;2023-12-20T00:20:36;7.80;99.90
73955;DHT22;62306;52.516;13.290;2023-12-20T00:23:03;7.80;99.90
73955;DHT22;62306;52.516;13.290;2023-12-20T00:25:30;7.80;99.90
73955;DHT22;62306;52.516;13.290;2023-12-20T00:27:57;7.80;99.90
73955;DHT22;62306;52.516;13.290;2023-12-20T00:30:24;7.80;99.90
73955;DHT22;62306;52.516;13.290;2023-12-20T00:32:50;7.80;99.90
73955;DHT22;62306;52.516;13.290;2023-12-20T00:35:19;7.80;99.90
73955;DHT22;62306;52.516;13.290;2023-12-20T00:37:46;7.80;99.90
73955;DHT22;62306;52.516;13.290;2023-12-20T00:40:12;7.80;99.90
73955;DHT22;62306;52.516;13.290;2023-12-20T00:42:39;7.80;99.90
73955;DHT22;62306;52.516;13.290;2023-12-20T00:45:07;7.80;99.90
73955;DHT22;62306;52.516;13.290;2023-12-20T00:47:33;7.80;99.90
73955;DHT22;62306;52.516;13.290;2023-12-20T00:50:00;7.80;99.90
73955;DHT22;62306;52.516;13.290;2023-12-20T00:52:29;7.80;99.90
73955;DHT22;62306;52.516;13.290;2023-12-20T00:54:56;7.80;99.90
73955;DHT22;62306;52.516;13.290;2023-12-20T00:57:23;7.80;99.90
73955;DHT22;62306;52.516;13.290;2023-12-20T00:59:51;7.80;99.90
73955;DHT22;62306;52.516;13.290;2023-12-20T01:02:17;7.80;99.90
73955;DHT22;62306;52.516;13.290;2023-12-20T01:04:44;7.80;99.90
73955;DHT22;62306;52.516;13.290;2023-12-20T01:07:12;7.80;99.90
73955;DHT22;62306;52.516;13.290;2023-12-20T01:09:40;7.80;99.90
73955;DHT22;62306;52.516;13.290;2023-12-20T01:12:07;7.80;99.90
73955;DHT22;62306;52.516;13.290;2023-12-20T01:14:34;7.80;99.90
73955;DHT22;62306;52.516;13.290;2023-12-20T01:17:01;7.80;99.90
73955;DHT22;62306;52.516;13.290;2023-12-20T01:19:28;7.80;99.90
73955;DHT22;62306;52.516;13.290;2023-12-20T01:21:55;7.70;99.90
73955;DHT22;62306;52.516;13.290;2023-12-20T01:24:22;7.70;99.90
73955;DHT22;62306;52.516;13.290;2023-12-20T01:26:50;7.70;99.90
73955;DHT22;62306;52.516;13.290;2023-12-20T01:29:17;7.70;99.90
73955;DHT22;62306;52.516;13.290;2023-12-20T01:31:44;7.70;99.90
73955;DHT22;62306;52.516;13.290;2023-12-20T01:34:11;7.70;99.90
73955;DHT22;62306;52.516;13.290;2023-12-20T01:36:37;7.70;99.90
73955;DHT22;62306;52.516;13.290;2023-12-20T01:39:04;7.60;99.90
73955;DHT22;62306;52.516;13.290;2023-12-20T01:41:31;7.60;99.90
73955;DHT22;62306;52.516;13.290;2023-12-20T01:44:00;7.70;99.90
73955;DHT22;62306;52.516;13.290;2023-12-20T01:46:26;7.60;99.90
73955;DHT22;62306;52.516;13.290;2023-12-20T01:48:53;7.60;99.90
73955;DHT22;62306;52.516;13.290;2023-12-20T01:51:21;7.60;99.90
73955;DHT22;62306;52.516;13.290;2023-12-20T01:53:48;7.60;99.90
73955;DHT22;62306;52.516;13.290;2023-12-20T01:56:15;7.60;99.90
73955;DHT22;62306;52.516;13.290;2023-12-20T01:58:44;7.60;99.90
73955;DHT22;62306;52.516;13.290;2023-12-20T02:01:12;7.60;99.90
73955;DHT22;62306;52.516;13.290;2023-12-20T02:03:40;7.60;99.90
73955;DHT22;62306;52.516;13.290;2023-12-20T02:06:08;7.60;99.90
73955;DHT22;62306;52.516;13.290;2023-12-20T02:08:36;7.60;99.90
73955;DHT22;62306;52.516;13.290;2023-12-20T02:11:03;7.60;99.90
73955;DHT22;62306;52.516;13.290;2023-12-20T02:13:30;7.60;99.90
73955;DHT22;62306;52.516;13.290;2023-12-20T02:15:57;7.60;99.90
73955;DHT22;62306;52.516;13.290;2023-12-20T02:18:26;7.50;99.90
73955;DHT22;62306;52.516;13.290;2023-12-20T02:20:53;7.50;99.90
73955;DHT22;62306;52.516;13.290;2023-12-20T02:23:22;7.50;99.90
73955;DHT22;62306;52.516;13.290;2023-12-20T02:25:47;7.60;99.90
73955;DHT22;62306;52.516;13.290;2023-12-20T02:28:14;7.60;99.90
73955;DHT22;62306;52.516;13.290;2023-12-20T02:30:42;7.60;99.90
73955;DHT22;62306;52.516;13.290;2023-12-20T02:33:10;7.60;99.90
73955;DHT22;62306;52.516;13.290;2023-12-20T02:35:38;7.60;99.90
73955;DHT22;62306;52.516;13.290;2023-12-20T02:38:05;7.60;99.90
73955;DHT22;62306;52.516;13.290;2023-12-20T02:40:33;7.60;99.90
73955;DHT22;62306;52.516;13.290;2023-12-20T02:43:00;7.60;99.90
73955;DHT22;62306;52.516;13.290;2023-12-20T02:45:27;7.50;99.90
73955;DHT22;62306;52.516;13.290;2023-12-20T02:47:54;7.60;99.90
73955;DHT22;62306;52.516;13.290;2023-12-20T02:50:20;7.60;99.90
73955;DHT22;62306;52.516;13.290;2023-12-20T02:52:47;7.60;99.90
73955;DHT22;62306;52.516;13.290;2023-12-20T02:55:14;7.60;99.90
73955;DHT22;62306;52.516;13.290;2023-12-20T02:57:42;7.60;99.90
73955;DHT22;62306;52.516;13.290;2023-12-20T03:00:10;7.60;99.90
73955;DHT22;62306;52.516;13.290;2023-12-20T03:02:37;7.60;99.90
73955;DHT22;62306;52.516;13.290;2023-12-20T03:05:05;7.60;99.90
73955;DHT22;62306;52.516;13.290;2023-12-20T03:07:31;7.60;99.90
73955;DHT22;62306;52.516;13.290;2023-12-20T03:15:55;7.60;99.90
73955;DHT22;62306;52.516;13.290;2023-12-20T03:18:22;7.60;99.90
73955;DHT22;62306;52.516;13.290;2023-12-20T03:20:49;7.60;99.90
73955;DHT22;62306;52.516;13.290;2023-12-20T03:23:16;7.60;99.90
73955;DHT22;62306;52.516;13.290;2023-12-20T03:25:43;7.60;99.90
73955;DHT22;62306;52.516;13.290;2023-12-20T03:28:10;7.50;99.90
73955;DHT22;62306;52.516;13.290;2023-12-20T03:30:36;7.50;99.90
73955;DHT22;62306;52.516;13.290;2023-12-20T03:33:05;7.50;99.90
73955;DHT22;62306;52.516;13.290;2023-12-20T03:35:33;7.50;99.90
73955;DHT22;62306;52.516;13.290;2023-12-20T03:38:00;7.50;99.90
73955;DHT22;62306;52.516;13.290;2023-12-20T03:40:27;7.50;99.90
73955;DHT22;62306;52.516;13.290;2023-12-20T03:42:53;7.60;99.90
73955;DHT22;62306;52.516;13.290;2023-12-20T03:45:20;7.50;99.90
73955;DHT22;62306;52.516;13.290;2023-12-20T03:47:47;7.50;99.90
73955;DHT22;62306;52.516;13.290;2023-12-20T03:50:16;7.50;99.90
73955;DHT22;62306;52.516;13.290;2023-12-20T03:52:43;7.40;99.90
73955;DHT22;62306;52.516;13.290;2023-12-20T03:55:10;7.40;99.90
73955;DHT22;62306;52.516;13.290;2023-12-20T03:57:36;7.30;99.90
73955;DHT22;62306;52.516;13.290;2023-12-20T04:00:04;7.40;99.90
73955;DHT22;62306;52.516;13.290;2023-12-20T04:02:35;7.30;99.90
73955;DHT22;62306;52.516;13.290;2023-12-20T04:05:02;7.30;99.90
73955;DHT22;62306;52.516;13.290;2023-12-20T04:07:31;7.40;99.90
73955;DHT22;62306;52.516;13.290;2023-12-20T04:09:58;7.40;99.90
73955;DHT22;62306;52.516;13.290;2023-12-20T04:12:25;7.30;99.90
73955;DHT22;62306;52.516;13.290;2023-12-20T04:14:52;7.30;99.90
73955;DHT22;62306;52.516;13.290;2023-12-20T04:17:20;7.30;99.90
73955;DHT22;62306;52.516;13.290;2023-12-20T04:19:48;7.20;99.90
73955;DHT22;62306;52.516;13.290;2023-12-20T04:22:15;7.20;99.90
73955;DHT22;62306;52.516;13.290;2023-12-20T04:24:43;7.20;99.90
73955;DHT22;62306;52.516;13.290;2023-12-20T04:27:10;7.20;99.90
73955;DHT22;62306;52.516;13.290;2023-12-20T04:29:37;7.10;99.90
73955;DHT22;62306;52.516;13.290;2023-12-20T04:32:05;7.10;99.90
73955;DHT22;62306;52.516;13.290;2023-12-20T04:34:31;7.10;99.90
73955;DHT22;62306;52.516;13.290;2023-12-20T04:36:58;7.00;99.90
73955;DHT22;62306;52.516;13.290;2023-12-20T04:39:27;7.00;99.90
73955;DHT22;62306;52.516;13.290;2023-12-20T04:41:55;6.90;99.90
73955;DHT22;62306;52.516;13.290;2023-12-20T04:44:22;6.80;99.90
73955;DHT22;62306;52.516;13.290;2023-12-20T04:46:49;6.80;99.90
73955;DHT22;62306;52.516;13.290;2023-12-20T04:49:16;6.70;99.90
73955;DHT22;62306;52.516;13.290;2023-12-20T04:51:42;6.70;99.90
73955;DHT22;62306;52.516;13.290;2023-12-20T04:54:09;6.80;99.90
73955;DHT22;62306;52.516;13.290;2023-12-20T04:56:36;6.80;99.90
73955;DHT22;62306;52.516;13.290;2023-12-20T04:59:04;6.80;99.90
73955;DHT22;62306;52.516;13.290;2023-12-20T05:01:31;6.80;99.90
73955;DHT22;62306;52.516;13.290;2023-12-20T05:03:58;6.80;99.90
73955;DHT22;62306;52.516;13.290;2023-12-20T05:06:25;6.70;99.90
73955;DHT22;62306;52.516;13.290;2023-12-20T05:08:51;6.80;99.90
73955;DHT22;62306;52.516;13.290;2023-12-20T05:11:18;6.90;99.90
73955;DHT22;62306;52.516;13.290;2023-12-20T05:13:45;6.90;99.90
73955;DHT22;62306;52.516;13.290;2023-12-20T05:16:13;6.90;99.90
73955;DHT22;62306;52.516;13.290;2023-12-20T05:18:43;6.80;99.90
73955;DHT22;62306;52.516;13.290;2023-12-20T05:21:10;6.80;99.90
73955;DHT22;62306;52.516;13.290;2023-12-20T05:23:36;6.70;99.90
73955;DHT22;62306;52.516;13.290;2023-12-20T05:26:03;6.50;99.90
73955;DHT22;62306;52.516;13.290;2023-12-20T05:28:30;6.50;99.90
73955;DHT22;62306;52.516;13.290;2023-12-20T05:30:57;6.40;99.90
73955;DHT22;62306;52.516;13.290;2023-12-20T05:33:25;6.40;99.90
73955;DHT22;62306;52.516;13.290;2023-12-20T05:35:52;6.30;99.90
73955;DHT22;62306;52.516;13.290;2023-12-20T05:38:19;6.30;99.90
73955;DHT22;62306;52.516;13.290;2023-12-20T05:40:46;6.30;99.90
73955;DHT22;62306;52.516;13.290;2023-12-20T05:43:12;6.20;99.90
73955;DHT22;62306;52.516;13.290;2023-12-20T05:45:39;6.20;99.90
73955;DHT22;62306;52.516;13.290;2023-12-20T05:48:06;6.20;99.90
73955;DHT22;62306;52.516;13.290;2023-12-20T05:50:35;6.10;99.90
73955;DHT22;62306;52.516;13.290;2023-12-20T05:53:02;6.10;99.90
73955;DHT22;62306;52.516;13.290;2023-12-20T05:55:29;6.10;99.90
73955;DHT22;62306;52.516;13.290;2023-12-20T05:57:56;6.10;99.90
73955;DHT22;62306;52.516;13.290;2023-12-20T06:00:22;6.10;99.90
73955;DHT22;62306;52.516;13.290;2023-12-20T06:02:50;6.10;99.90
73955;DHT22;62306;52.516;13.290;2023-12-20T06:05:17;6.00;99.90
73955;DHT22;62306;52.516;13.290;2023-12-20T06:07:45;6.10;99.90
73955;DHT22;62306;52.516;13.290;2023-12-20T06:10:13;6.10;99.90
73955;DHT22;62306;52.516;13.290;2023-12-20T06:12:40;6.10;99.90
73955;DHT22;62306;52.516;13.290;2023-12-20T06:15:07;6.10;99.90
73955;DHT22;62306;52.516;13.290;2023-12-20T06:17:34;6.10;99.90
73955;DHT22;62306;52.516;13.290;2023-12-20T06:20:02;6.10;99.90
73955;DHT22;62306;52.516;13.290;2023-12-20T06:22:33;6.10;99.90
73955;DHT22;62306;52.516;13.290;2023-12-20T06:25:01;6.10;99.90
73955;DHT22;62306;52.516;13.290;2023-12-20T06:27:29;6.10;99.90
73955;DHT22;62306;52.516;13.290;2023-12-20T06:29:58;6.20;99.90
73955;DHT22;62306;52.516;13.290;2023-12-20T06:32:24;6.20;99.90
73955;DHT22;62306;52.516;13.290;2023-12-20T06:34:51;6.20;99.90
73955;DHT22;62306;52.516;13.290;2023-12-20T06:37:18;6.20;99.90
73955;DHT22;62306;52.516;13.290;2023-12-20T06:39:45;6.20;99.90
73955;DHT22;62306;52.516;13.290;2023-12-20T06:42:13;6.30;99.90
73955;DHT22;62306;52.516;13.290;2023-12-20T06:44:40;6.30;99.90
73955;DHT22;62306;52.516;13.290;2023-12-20T06:47:07;6.30;99.90
73955;DHT22;62306;52.516;13.290;2023-12-20T06:49:34;6.30;99.90
73955;DHT22;62306;52.516;13.290;2023-12-20T06:52:01;6.30;99.90
73955;DHT22;62306;52.516;13.290;2023-12-20T06:54:27;6.30;99.90
73955;DHT22;62306;52.516;13.290;2023-12-20T06:56:54;6.30;99.90
73955;DHT22;62306;52.516;13.290;2023-12-20T06:59:22;6.30;99.90
73955;DHT22;62306;52.516;13.290;2023-12-20T07:01:49;6.40;99.90
73955;DHT22;62306;52.516;13.290;2023-12-20T07:04:16;6.40;99.90
73955;DHT22;62306;52.516;13.290;2023-12-20T07:06:45;6.40;99.90
73955;DHT22;62306;52.516;13.290;2023-12-20T07:09:13;6.40;99.90
73955;DHT22;62306;52.516;13.290;2023-12-20T07:11:40;6.80;99.90
73955;DHT22;62306;52.516;13.290;2023-12-20T07:14:07;6.40;99.90
73955;DHT22;62306;52.516;13.290;2023-12-20T07:16:35;6.50;99.90
73955;DHT22;62306;52.516;13.290;2023-12-20T07:19:02;6.50;99.90
73955;DHT22;62306;52.516;13.290;2023-12-20T07:21:29;6.50;99.90
73955;DHT22;62306;52.516;13.290;2023-12-20T07:23:56;6.50;99.90
73955;DHT22;62306;52.516;13.290;2023-12-20T07:26:23;6.50;99.90
73955;DHT22;62306;52.516;13.290;2023-12-20T07:28:49;6.50;99.90
73955;DHT22;62306;52.516;13.290;2023-12-20T07:31:16;6.60;99.90
73955;DHT22;62306;52.516;13.290;2023-12-20T07:33:45;6.50;99.90
73955;DHT22;62306;52.516;13.290;2023-12-20T07:36:12;6.50;99.90
73955;DHT22;62306;52.516;13.290;2023-12-20T07:38:39;6.50;99.90
73955;DHT22;62306;52.516;13.290;2023-12-20T07:41:09;6.50;99.90
73955;DHT22;62306;52.516;13.290;2023-12-20T07:43:36;6.60;99.90
73955;DHT22;62306;52.516;13.290;2023-12-20T07:46:06;6.60;99.90
73955;DHT22;62306;52.516;13.290;2023-12-20T07:48:34;6.60;99.90
73955;DHT22;62306;52.516;13.290;2023-12-20T07:51:02;6.60;99.90
73955;DHT22;62306;52.516;13.290;2023-12-20T07:53:29;6.60;99.90
73955;DHT22;62306;52.516;13.290;2023-12-20T07:55:56;6.60;99.90
73955;DHT22;62306;52.516;13.290;2023-12-20T07:58:23;6.60;99.90
73955;DHT22;62306;52.516;13.290;2023-12-20T08:00:50;6.60;99.90
73955;DHT22;62306;52.516;13.290;2023-12-20T08:03:16;6.70;99.90
73955;DHT22;62306;52.516;13.290;2023-12-20T08:05:43;6.70;99.90
73955;DHT22;62306;52.516;13.290;2023-12-20T08:08:11;6.70;99.90
73955;DHT22;62306;52.516;13.290;2023-12-20T08:10:38;6.70;99.90
73955;DHT22;62306;52.516;13.290;2023-12-20T08:13:05;6.70;99.90
73955;DHT22;62306;52.516;13.290;2023-12-20T08:15:32;6.70;99.90
73955;DHT22;62306;52.516;13.290;2023-12-20T08:17:59;6.70;99.90
73955;DHT22;62306;52.516;13.290;2023-12-20T08:20:26;6.80;99.90
73955;DHT22;62306;52.516;13.290;2023-12-20T08:22:53;6.80;99.90
73955;DHT22;62306;52.516;13.290;2023-12-20T08:25:21;6.80;99.90
73955;DHT22;62306;52.516;13.290;2023-12-20T08:27:48;6.80;99.90
73955;DHT22;62306;52.516;13.290;2023-12-20T08:30:14;6.80;99.90
73955;DHT22;62306;52.516;13.290;2023-12-20T08:32:43;6.80;99.90
73955;DHT22;62306;52.516;13.290;2023-12-20T08:35:10;6.80;99.90
73955;DHT22;62306;52.516;13.290;2023-12-20T08:37:36;6.80;99.90
73955;DHT22;62306;52.516;13.290;2023-12-20T08:40:04;6.90;99.90
73955;DHT22;62306;52.516;13.290;2023-12-20T08:42:32;6.90;99.90
73955;DHT22;62306;52.516;13.290;2023-12-20T08:44:59;7.00;99.90
73955;DHT22;62306;52.516;13.290;2023-12-20T08:47:26;7.10;99.90
73955;DHT22;62306;52.516;13.290;2023-12-20T08:49:53;7.20;99.90
73955;DHT22;62306;52.516;13.290;2023-12-20T08:52:22;7.20;99.90
73955;DHT22;62306;52.516;13.290;2023-12-20T08:54:48;7.30;99.90
73955;DHT22;62306;52.516;13.290;2023-12-20T08:57:17;7.30;99.90
73955;DHT22;62306;52.516;13.290;2023-12-20T08:59:45;7.30;99.90
73955;DHT22;62306;52.516;13.290;2023-12-20T09:02:12;7.20;99.90
73955;DHT22;62306;52.516;13.290;2023-12-20T09:04:39;7.10;99.90
73955;DHT22;62306;52.516;13.290;2023-12-20T09:07:06;7.20;99.90
73955;DHT22;62306;52.516;13.290;2023-12-20T09:09:33;7.40;99.90
73955;DHT22;62306;52.516;13.290;2023-12-20T09:12:00;7.50;99.90
73955;DHT22;62306;52.516;13.290;2023-12-20T09:14:26;7.50;99.90
73955;DHT22;62306;52.516;13.290;2023-12-20T09:16:55;7.50;99.90
73955;DHT22;62306;52.516;13.290;2023-12-20T09:19:22;7.50;99.90
73955;DHT22;62306;52.516;13.290;2023-12-20T09:21:49;7.50;99.90
73955;DHT22;62306;52.516;13.290;2023-12-20T09:24:15;7.50;99.90
73955;DHT22;62306;52.516;13.290;2023-12-20T09:26:42;7.50;99.90
73955;DHT22;62306;52.516;13.290;2023-12-20T09:29:09;7.50;99.90
73955;DHT22;62306;52.516;13.290;2023-12-20T09:31:40;7.50;99.90
73955;DHT22;62306;52.516;13.290;2023-12-20T09:34:10;7.50;99.90
73955;DHT22;62306;52.516;13.290;2023-12-20T09:36:37;7.50;99.90
73955;DHT22;62306;52.516;13.290;2023-12-20T09:39:08;7.50;99.90
73955;DHT22;62306;52.516;13.290;2023-12-20T09:41:37;7.50;99.90
73955;DHT22;62306;52.516;13.290;2023-12-20T09:44:08;7.50;99.90
73955;DHT22;62306;52.516;13.290;2023-12-20T09:46:42;7.50;99.90
73955;DHT22;62306;52.516;13.290;2023-12-20T09:49:11;7.50;99.90
73955;DHT22;62306;52.516;13.290;2023-12-20T09:51:40;7.50;99.90
73955;DHT22;62306;52.516;13.290;2023-12-20T09:54:07;7.50;99.90
73955;DHT22;62306;52.516;13.290;2023-12-20T09:56:34;7.50;99.90
73955;DHT22;62306;52.516;13.290;2023-12-20T09:59:00;7.50;99.90
73955;DHT22;62306;52.516;13.290;2023-12-20T10:01:28;7.40;99.90
73955;DHT22;62306;52.516;13.290;2023-12-20T10:03:55;7.40;99.90
73955;DHT22;62306;52.516;13.290;2023-12-20T10:06:24;7.40;99.90
73955;DHT22;62306;52.516;13.290;2023-12-20T10:08:50;7.40;99.90
73955;DHT22;62306;52.516;13.290;2023-12-20T10:11:17;7.40;99.90
73955;DHT22;62306;52.516;13.290;2023-12-20T10:13:47;7.50;99.90
73955;DHT22;62306;52.516;13.290;2023-12-20T10:16:14;7.40;99.90
73955;DHT22;62306;52.516;13.290;2023-12-20T10:18:41;7.50;99.90
73955;DHT22;62306;52.516;13.290;2023-12-20T10:21:08;7.50;99.90
73955;DHT22;62306;52.516;13.290;2023-12-20T10:23:37;7.50;99.90
73955;DHT22;62306;52.516;13.290;2023-12-20T10:26:04;7.50;99.90
73955;DHT22;62306;52.516;13.290;2023-12-20T10:28:34;7.50;99.90
73955;DHT22;62306;52.516;13.290;2023-12-20T10:31:00;7.50;99.90
73955;DHT22;62306;52.516;13.290;2023-12-20T10:33:28;7.50;99.90
73955;DHT22;62306;52.516;13.290;2023-12-20T10:35:55;7.60;99.90
73955;DHT22;62306;52.516;13.290;2023-12-20T10:38:22;7.60;99.90
73955;DHT22;62306;52.516;13.290;2023-12-20T10:40:54;7.60;99.90
73955;DHT22;62306;52.516;13.290;2023-12-20T10:43:23;7.60;99.90
73955;DHT22;62306;52.516;13.290;2023-12-20T10:45:51;7.70;99.90
73955;DHT22;62306;52.516;13.290;2023-12-20T10:48:18;7.80;99.90
73955;DHT22;62306;52.516;13.290;2023-12-20T10:50:47;7.70;99.90
73955;DHT22;62306;52.516;13.290;2023-12-20T10:53:14;7.70;99.90
73955;DHT22;62306;52.516;13.290;2023-12-20T10:55:43;7.70;99.90
73955;DHT22;62306;52.516;13.290;2023-12-20T10:58:13;7.70;99.90
73955;DHT22;62306;52.516;13.290;2023-12-20T11:00:41;7.60;99.90
73955;DHT22;62306;52.516;13.290;2023-12-20T11:03:10;7.60;99.90
73955;DHT22;62306;52.516;13.290;2023-12-20T11:05:42;7.70;99.90
73955;DHT22;62306;52.516;13.290;2023-12-20T11:08:17;7.70;99.90
73955;DHT22;62306;52.516;13.290;2023-12-20T11:10:51;7.70;99.90
73955;DHT22;62306;52.516;13.290;2023-12-20T11:13:26;7.70;99.90
73955;DHT22;62306;52.516;13.290;2023-12-20T11:15:54;7.70;99.90
73955;DHT22;62306;52.516;13.290;2023-12-20T11:18:28;7.70;99.90
73955;DHT22;62306;52.516;13.290;2023-12-20T11:21:00;7.70;99.90
73955;DHT22;62306;52.516;13.290;2023-12-20T11:23:27;7.80;99.90
73955;DHT22;62306;52.516;13.290;2023-12-20T11:25:55;7.70;99.90
73955;DHT22;62306;52.516;13.290;2023-12-20T11:28:26;7.70;99.90
73955;DHT22;62306;52.516;13.290;2023-12-20T11:30:54;7.70;99.90
73955;DHT22;62306;52.516;13.290;2023-12-20T11:33:22;7.70;99.90
73955;DHT22;62306;52.516;13.290;2023-12-20T11:35:49;7.70;99.90
73955;DHT22;62306;52.516;13.290;2023-12-20T11:38:16;7.70;99.90
73955;DHT22;62306;52.516;13.290;2023-12-20T11:40:43;7.60;99.90
73955;DHT22;62306;52.516;13.290;2023-12-20T11:43:10;7.70;99.90
73955;DHT22;62306;52.516;13.290;2023-12-20T11:45:49;7.70;99.90
73955;DHT22;62306;52.516;13.290;2023-12-20T11:48:17;7.70;99.90
73955;DHT22;62306;52.516;13.290;2023-12-20T11:50:45;7.70;99.90
73955;DHT22;62306;52.516;13.290;2023-12-20T11:53:12;7.70;99.90
73955;DHT22;62306;52.516;13.290;2023-12-20T11:55:39;7.70;99.90
73955;DHT22;62306;52.516;13.290;2023-12-20T11:58:05;7.70;99.90
73955;DHT22;62306;52.516;13.290;2023-12-20T12:00:34;7.70;99.90
73955;DHT22;62306;52.516;13.290;2023-12-20T12:03:03;7.70;99.90
73955;DHT22;62306;52.516;13.290;2023-12-20T12:05:31;7.70;99.90
73955;DHT22;62306;52.516;13.290;2023-12-20T12:07:58;7.80;99.90
73955;DHT22;62306;52.516;13.290;2023-12-20T12:10:25;7.80;99.90
73955;DHT22;62306;52.516;13.290;2023-12-20T12:12:52;7.80;99.90
73955;DHT22;62306;52.516;13.290;2023-12-20T12:15:19;7.80;99.90
73955;DHT22;62306;52.516;13.290;2023-12-20T12:17:53;7.80;99.90
73955;DHT22;62306;52.516;13.290;2023-12-20T12:20:22;7.80;99.90
73955;DHT22;62306;52.516;13.290;2023-12-20T12:22:57;7.80;99.90
73955;DHT22;62306;52.516;13.290;2023-12-20T12:25:24;7.80;99.90
73955;DHT22;62306;52.516;13.290;2023-12-20T12:27:51;7.80;99.90
73955;DHT22;62306;52.516;13.290;2023-12-20T12:30:18;7.80;99.90
73955;DHT22;62306;52.516;13.290;2023-12-20T12:32:46;7.70;99.90
73955;DHT22;62306;52.516;13.290;2023-12-20T12:35:14;7.60;99.90
73955;DHT22;62306;52.516;13.290;2023-12-20T12:37:42;7.60;99.90
73955;DHT22;62306;52.516;13.290;2023-12-20T12:40:10;7.60;99.90
73955;DHT22;62306;52.516;13.290;2023-12-20T12:42:37;7.50;99.90
73955;DHT22;62306;52.516;13.290;2023-12-20T12:45:05;7.50;99.90
73955;DHT22;62306;52.516;13.290;2023-12-20T12:47:32;7.50;99.90
73955;DHT22;62306;52.516;13.290;2023-12-20T12:49:59;7.50;99.90
73955;DHT22;62306;52.516;13.290;2023-12-20T12:52:26;7.50;99.90
73955;DHT22;62306;52.516;13.290;2023-12-20T12:54:54;7.60;99.90
73955;DHT22;62306;52.516;13.290;2023-12-20T12:57:21;7.60;99.90
73955;DHT22;62306;52.516;13.290;2023-12-20T12:59:48;7.60;99.90
73955;DHT22;62306;52.516;13.290;2023-12-20T13:02:16;7.50;99.90
73955;DHT22;62306;52.516;13.290;2023-12-20T13:04:43;7.50;99.90
73955;DHT22;62306;52.516;13.290;2023-12-20T13:07:10;7.50;99.90
73955;DHT22;62306;52.516;13.290;2023-12-20T13:09:36;7.50;99.90
73955;DHT22;62306;52.516;13.290;2023-12-20T13:12:05;7.40;99.90
73955;DHT22;62306;52.516;13.290;2023-12-20T13:14:33;7.40;99.90
73955;DHT22;62306;52.516;13.290;2023-12-20T13:17:00;7.30;99.90
73955;DHT22;62306;52.516;13.290;2023-12-20T13:19:26;7.30;99.90
73955;DHT22;62306;52.516;13.290;2023-12-20T13:21:53;7.10;99.90
73955;DHT22;62306;52.516;13.290;2023-12-20T13:24:20;7.00;99.90
73955;DHT22;62306;52.516;13.290;2023-12-20T13:26:47;6.70;99.90
73955;DHT22;62306;52.516;13.290;2023-12-20T13:29:15;6.60;99.90
73955;DHT22;62306;52.516;13.290;2023-12-20T13:31:42;6.50;99.90
73955;DHT22;62306;52.516;13.290;2023-12-20T13:34:09;6.50;99.90
73955;DHT22;62306;52.516;13.290;2023-12-20T13:36:36;6.40;99.90
73955;DHT22;62306;52.516;13.290;2023-12-20T13:39:03;6.40;99.90
73955;DHT22;62306;52.516;13.290;2023-12-20T13:41:30;6.40;99.90
73955;DHT22;62306;52.516;13.290;2023-12-20T13:43:57;6.40;99.90
73955;DHT22;62306;52.516;13.290;2023-12-20T13:46:25;6.40;99.90
73955;DHT22;62306;52.516;13.290;2023-12-20T13:48:53;6.40;99.90
73955;DHT22;62306;52.516;13.290;2023-12-20T13:51:20;6.40;99.90
73955;DHT22;62306;52.516;13.290;2023-12-20T13:53:47;6.40;99.90
73955;DHT22;62306;52.516;13.290;2023-12-20T13:56:14;6.30;99.90
73955;DHT22;62306;52.516;13.290;2023-12-20T13:58:41;6.20;99.90
73955;DHT22;62306;52.516;13.290;2023-12-20T14:01:08;6.20;99.90
73955;DHT22;62306;52.516;13.290;2023-12-20T14:03:37;6.20;99.90
73955;DHT22;62306;52.516;13.290;2023-12-20T14:06:04;6.20;99.90
73955;DHT22;62306;52.516;13.290;2023-12-20T14:08:31;6.10;99.90
73955;DHT22;62306;52.516;13.290;2023-12-20T14:10:58;6.10;99.90
73955;DHT22;62306;52.516;13.290;2023-12-20T14:13:23;6.10;99.90
73955;DHT22;62306;52.516;13.290;2023-12-20T14:15:50;6.00;99.90
73955;DHT22;62306;52.516;13.290;2023-12-20T14:18:17;6.00;99.90
73955;DHT22;62306;52.516;13.290;2023-12-20T14:20:45;6.00;99.90
73955;DHT22;62306;52.516;13.290;2023-12-20T14:23:13;6.00;99.90
73955;DHT22;62306;52.516;13.290;2023-12-20T14:25:41;6.00;99.90
73955;DHT22;62306;52.516;13.290;2023-12-20T14:28:08;6.00;99.90
73955;DHT22;62306;52.516;13.290;2023-12-20T14:30:35;6.00;99.90
73955;DHT22;62306;52.516;13.290;2023-12-20T14:33:04;6.00;99.90
73955;DHT22;62306;52.516;13.290;2023-12-20T14:35:31;6.10;99.90
73955;DHT22;62306;52.516;13.290;2023-12-20T14:37:59;6.10;99.90
73955;DHT22;62306;52.516;13.290;2023-12-20T14:40:26;6.20;99.90
73955;DHT22;62306;52.516;13.290;2023-12-20T14:42:53;6.20;99.90
73955;DHT22;62306;52.516;13.290;2023-12-20T14:45:20;6.30;99.90
73955;DHT22;62306;52.516;13.290;2023-12-20T14:47:47;6.20;99.90
73955;DHT22;62306;52.516;13.290;2023-12-20T14:50:14;6.20;99.90
73955;DHT22;62306;52.516;13.290;2023-12-20T14:52:44;6.20;99.90
73955;DHT22;62306;52.516;13.290;2023-12-20T14:55:12;6.20;99.90
73955;DHT22;62306;52.516;13.290;2023-12-20T14:57:39;6.20;99.90
73955;DHT22;62306;52.516;13.290;2023-12-20T15:00:06;6.20;99.90
73955;DHT22;62306;52.516;13.290;2023-12-20T15:02:33;6.20;99.90
73955;DHT22;62306;52.516;13.290;2023-12-20T15:05:00;6.20;99.90
73955;DHT22;62306;52.516;13.290;2023-12-20T15:07:27;6.20;99.90
73955;DHT22;62306;52.516;13.290;2023-12-20T15:09:54;6.20;99.90
73955;DHT22;62306;52.516;13.290;2023-12-20T15:12:23;6.20;99.90
73955;DHT22;62306;52.516;13.290;2023-12-20T15:14:50;6.20;99.90
73955;DHT22;62306;52.516;13.290;2023-12-20T15:17:17;6.20;99.90
73955;DHT22;62306;52.516;13.290;2023-12-20T15:19:43;6.20;99.90
73955;DHT22;62306;52.516;13.290;2023-12-20T15:22:10;6.20;99.90
73955;DHT22;62306;52.516;13.290;2023-12-20T15:24:37;6.20;99.90
73955;DHT22;62306;52.516;13.290;2023-12-20T15:27:06;6.10;99.90
73955;DHT22;62306;52.516;13.290;2023-12-20T15:29:34;6.10;99.90
73955;DHT22;62306;52.516;13.290;2023-12-20T15:32:02;6.00;99.90
73955;DHT22;62306;52.516;13.290;2023-12-20T15:34:29;5.90;99.90
73955;DHT22;62306;52.516;13.290;2023-12-20T15:36:57;5.80;99.90